Time;durP1;ratioP1;P1;durP2;ratioP2;P2;SDS_P1;SDS_P2;PMS_P1;PMS_P2;Temp;Humidity;BMP_temperature;BMP_pressure;BME280_temperature;BME280_humidity;BME280_pressure;Samples;Min_cycle;Max_cycle;Signal;HPM_P1;HPM_P2
2022/04/01 04:22:59;;;;;;;7.45;6.50;;;3.00;99.90;;;;;;5972549;23;20309;-68
2022/04/01 04:25:34;;;;;;;9.38;6.50;;;3.00;99.90;;;;;;4993557;28;20207;-68
2022/04/01 04:28:02;;;;;;;9.32;6.90;;;3.00;99.90;;;;;;4993838;28;20190;-68
2022/04/01 04:30:33;;;;;;;9.63;7.28;;;3.00;99.90;;;;;;4993742;28;20290;-68
2022/04/01 04:33:04;;;;;;;8.25;7.30;;;3.00;99.90;;;;;;5000791;28;20226;-68
2022/04/01 04:35:31;;;;;;;8.40;6.85;;;2.90;99.90;;;;;;5003408;28;20187;-68
2022/04/01 04:38:00;;;;;;;11.30;8.77;;;2.90;99.90;;;;;;5000444;28;20209;-68
2022/04/01 04:40:28;;;;;;;10.05;7.38;;;2.90;99.90;;;;;;5003227;28;20274;-67
2022/04/01 04:42:55;;;;;;;8.93;7.10;;;2.90;99.90;;;;;;5022047;23;20231;-66
2022/04/01 04:45:24;;;;;;;9.18;7.35;;;2.90;99.90;;;;;;4997149;28;20566;-66
2022/04/01 04:47:51;;;;;;;11.35;7.65;;;2.90;99.90;;;;;;4997213;28;20202;-65
2022/04/01 04:50:19;;;;;;;8.52;7.28;;;2.90;99.90;;;;;;4997272;28;20203;-66
2022/04/01 04:52:49;;;;;;;11.45;8.60;;;3.00;99.90;;;;;;4997046;28;20706;-66
2022/04/01 04:55:18;;;;;;;11.07;7.70;;;3.00;99.90;;;;;;4997584;28;20206;-65
2022/04/01 04:57:46;;;;;;;11.73;7.65;;;3.00;99.90;;;;;;4997141;28;20202;-66
2022/04/01 05:00:19;;;;;;;11.68;8.10;;;3.00;99.90;;;;;;4996845;28;20202;-66
2022/04/01 05:03:15;;;;;;;10.18;8.18;;;3.00;99.90;;;;;;4996688;28;20218;-66
2022/04/01 05:05:44;;;;;;;11.35;7.85;;;2.90;99.90;;;;;;4981748;28;20289;-66
2022/04/01 05:08:23;;;;;;;11.60;8.45;;;2.80;99.90;;;;;;4997286;28;20206;-66
2022/04/01 05:10:59;;;;;;;10.90;8.55;;;2.80;99.90;;;;;;4996881;28;20191;-66
2022/04/01 05:13:38;;;;;;;12.82;7.50;;;2.80;99.90;;;;;;4996708;28;20218;-66
2022/04/01 05:16:07;;;;;;;8.77;6.53;;;2.80;99.90;;;;;;4996633;28;20197;-66
2022/04/01 05:18:40;;;;;;;7.40;6.22;;;2.80;99.90;;;;;;4997132;28;20233;-66
2022/04/01 05:21:18;;;;;;;5.53;4.97;;;2.80;99.90;;;;;;4996569;28;20626;-66
2022/04/01 05:23:52;;;;;;;5.78;5.28;;;2.90;99.90;;;;;;4996340;28;20217;-65
2022/04/01 05:26:38;;;;;;;5.60;5.10;;;2.90;99.90;;;;;;4997349;28;20191;-64
2022/04/01 05:29:07;;;;;;;5.85;5.00;;;2.90;99.90;;;;;;4996579;28;20183;-64
2022/04/01 05:31:37;;;;;;;5.88;5.28;;;2.90;99.90;;;;;;4996731;28;20227;-64
2022/04/01 05:34:11;;;;;;;6.13;5.40;;;2.90;99.90;;;;;;4996643;28;20224;-64
2022/04/01 05:36:38;;;;;;;5.97;5.38;;;2.90;99.90;;;;;;4996889;28;20242;-63
2022/04/01 05:39:05;;;;;;;6.60;5.28;;;2.80;99.90;;;;;;4996675;28;20206;-64
2022/04/01 05:41:34;;;;;;;5.38;4.88;;;2.90;99.90;;;;;;4996818;28;20597;-64
2022/04/01 05:44:03;;;;;;;5.53;5.00;;;2.90;99.90;;;;;;4997232;28;20297;-64
2022/04/01 05:46:31;;;;;;;5.88;5.28;;;2.90;99.90;;;;;;4997521;28;20242;-63
2022/04/01 05:48:59;;;;;;;6.18;5.57;;;2.90;99.90;;;;;;4997487;28;20202;-64
2022/04/01 05:51:27;;;;;;;6.30;5.70;;;2.90;99.90;;;;;;4997569;28;20747;-64
2022/04/01 05:53:56;;;;;;;5.68;5.05;;;2.90;99.90;;;;;;4996562;28;20226;-64
2022/04/01 05:56:23;;;;;;;6.88;5.55;;;2.90;99.90;;;;;;4996340;28;20199;-63
2022/04/01 05:58:52;;;;;;;6.32;5.43;;;2.90;99.90;;;;;;4997162;28;20203;-64
2022/04/01 06:01:27;;;;;;;6.70;5.97;;;2.90;99.90;;;;;;4996569;28;20202;-65
2022/04/01 06:04:24;;;;;;;6.53;5.13;;;2.90;99.90;;;;;;4996713;28;20210;-65
2022/04/01 06:07:01;;;;;;;7.78;5.68;;;3.00;99.90;;;;;;4996477;28;20583;-65
2022/04/01 06:09:37;;;;;;;6.70;6.05;;;3.00;99.90;;;;;;4996436;28;20237;-65
2022/04/01 06:12:11;;;;;;;7.20;5.78;;;3.00;99.90;;;;;;4996361;28;20258;-65
2022/04/01 06:14:50;;;;;;;7.88;6.03;;;3.00;99.90;;;;;;4996620;28;20186;-65
2022/04/01 06:17:32;;;;;;;9.25;6.88;;;3.10;99.90;;;;;;4995895;28;20269;-66
2022/04/01 06:20:07;;;;;;;6.55;5.68;;;3.00;99.90;;;;;;4995525;28;20198;-65
2022/04/01 06:22:39;;;;;;;5.80;5.30;;;3.00;99.90;;;;;;4995632;28;20222;-65
2022/04/01 06:25:12;;;;;;;8.35;6.68;;;3.10;99.90;;;;;;4995842;28;20202;-65
2022/04/01 06:27:42;;;;;;;8.63;7.00;;;3.10;99.90;;;;;;4995537;28;20191;-65
2022/04/01 06:30:12;;;;;;;12.60;7.50;;;3.20;99.90;;;;;;4995619;28;20245;-65
2022/04/01 06:32:52;;;;;;;8.48;6.93;;;3.10;99.90;;;;;;4995214;28;20227;-65
2022/04/01 06:35:20;;;;;;;6.85;6.15;;;3.20;99.90;;;;;;4995123;28;20191;-65
2022/04/01 06:37:55;;;;;;;9.73;7.30;;;3.10;99.90;;;;;;4995278;28;20233;-65
2022/04/01 06:40:24;;;;;;;7.78;6.15;;;3.10;99.90;;;;;;4995669;28;20186;-66
2022/04/01 06:42:53;;;;;;;9.32;6.70;;;3.10;99.90;;;;;;4994736;28;20238;-65
2022/04/01 06:45:21;;;;;;;6.18;5.47;;;3.10;99.90;;;;;;4994742;28;20214;-66
2022/04/01 08:59:57;;;;;;;1.60;1.60;;;2.90;99.90;;;;;;5056968;23;20636;-69
2022/04/01 09:02:25;;;;;;;1.50;1.50;;;2.90;99.90;;;;;;4997162;28;20222;-69
2022/04/01 09:05:04;;;;;;;2.35;2.25;;;2.90;99.90;;;;;;4996931;28;20838;-70
2022/04/01 09:07:31;;;;;;;2.22;2.13;;;2.90;99.90;;;;;;4996716;28;20193;-69
2022/04/01 09:10:01;;;;;;;2.35;2.25;;;2.90;99.90;;;;;;4996429;28;20597;-69
2022/04/01 09:12:29;;;;;;;2.70;2.60;;;2.80;99.90;;;;;;4996707;28;20191;-69
2022/04/01 09:14:59;;;;;;;3.67;3.20;;;2.90;99.90;;;;;;4996551;28;20230;-71
2022/04/01 09:17:41;;;;;;;3.25;2.97;;;2.80;99.90;;;;;;4997441;28;20558;-71
2022/04/01 09:20:09;;;;;;;4.18;3.85;;;2.80;99.90;;;;;;4997332;28;20193;-71
2022/04/01 09:22:37;;;;;;;3.78;3.55;;;2.80;99.90;;;;;;4997520;28;20214;-70
2022/04/01 09:25:05;;;;;;;3.88;3.58;;;2.80;99.90;;;;;;4995944;28;20537;-70
2022/04/01 09:27:51;;;;;;;4.32;3.95;;;2.80;99.90;;;;;;5019825;23;20764;-67
2022/04/01 09:30:21;;;;;;;4.65;3.92;;;2.80;99.90;;;;;;4996427;28;20195;-68
2022/04/01 09:32:51;;;;;;;3.88;3.58;;;2.90;99.90;;;;;;4996599;28;20197;-67
2022/04/01 09:35:20;;;;;;;4.90;4.50;;;2.90;99.90;;;;;;4996410;28;20198;-67
2022/04/01 09:37:48;;;;;;;4.47;4.07;;;3.00;99.90;;;;;;4996151;28;20223;-65
2022/04/01 09:40:18;;;;;;;4.55;4.10;;;3.10;99.90;;;;;;4996625;28;20202;-65
2022/04/01 09:42:49;;;;;;;5.35;4.70;;;3.10;99.90;;;;;;4996585;28;20203;-66
2022/04/01 09:45:20;;;;;;;5.55;4.50;;;3.10;99.90;;;;;;4996291;28;20565;-66
2022/04/01 09:47:58;;;;;;;6.25;4.75;;;3.10;99.90;;;;;;4996234;28;20230;-65
2022/04/01 09:50:28;;;;;;;5.55;5.03;;;3.20;99.90;;;;;;4996341;28;20191;-65
2022/04/01 09:52:55;;;;;;;5.55;5.00;;;3.20;99.90;;;;;;4995887;28;20586;-66
2022/04/01 09:55:22;;;;;;;4.85;4.45;;;3.30;99.90;;;;;;4995742;28;20202;-66
2022/04/01 09:57:49;;;;;;;5.25;4.75;;;3.20;99.90;;;;;;4996076;28;20225;-66
2022/04/01 10:00:17;;;;;;;5.15;4.65;;;3.30;99.90;;;;;;4995620;28;20302;-67
2022/04/01 10:02:45;;;;;;;5.05;4.60;;;3.30;99.90;;;;;;4995687;28;20206;-66
2022/04/01 10:05:12;;;;;;;5.38;4.88;;;3.40;99.90;;;;;;4995751;28;20309;-66
2022/04/01 10:07:39;;;;;;;5.43;4.93;;;3.40;99.90;;;;;;4995808;28;20225;-66
2022/04/01 10:10:08;;;;;;;5.40;5.00;;;3.40;99.90;;;;;;4996108;28;20203;-65
2022/04/01 10:12:45;;;;;;;5.35;4.82;;;3.40;99.90;;;;;;4995444;28;20721;-66
2022/04/01 10:15:13;;;;;;;6.75;5.45;;;3.40;99.90;;;;;;4995893;28;20273;-64
2022/04/01 10:17:41;;;;;;;5.15;4.65;;;3.40;99.90;;;;;;4995241;28;20587;-65
2022/04/01 10:20:14;;;;;;;6.55;4.88;;;3.30;99.90;;;;;;4995843;28;20207;-66
2022/04/01 10:22:43;;;;;;;4.20;3.83;;;3.20;99.90;;;;;;4995539;28;20191;-65
2022/04/01 10:25:17;;;;;;;4.72;4.32;;;3.30;99.90;;;;;;4995100;28;20694;-65
2022/04/01 10:27:49;;;;;;;4.63;4.22;;;3.30;99.90;;;;;;4995084;28;20226;-65
2022/04/01 10:30:18;;;;;;;4.65;4.25;;;3.40;99.90;;;;;;4995261;28;20286;-65
2022/04/01 10:32:46;;;;;;;4.68;4.13;;;3.50;99.90;;;;;;4995549;28;20241;-65
2022/04/01 10:35:24;;;;;;;3.38;3.17;;;3.50;99.90;;;;;;4994657;28;20203;-66
2022/04/01 10:37:56;;;;;;;3.53;3.15;;;3.60;99.90;;;;;;4995369;28;20226;-65
2022/04/01 10:40:31;;;;;;;2.85;2.75;;;3.60;99.90;;;;;;4995347;28;20198;-66
2022/04/01 10:43:10;;;;;;;2.50;2.40;;;3.70;99.90;;;;;;4997987;28;20183;-66
2022/04/01 10:45:39;;;;;;;2.28;2.17;;;3.70;99.90;;;;;;4999082;28;20203;-66
2022/04/01 10:54:06;;;;;;;1.52;1.52;;;3.70;99.90;;;;;;4999291;28;20652;-66
2022/04/01 10:56:40;;;;;;;2.35;2.15;;;3.70;99.90;;;;;;4998732;28;20235;-65
2022/04/01 10:59:15;;;;;;;1.88;1.80;;;3.60;99.90;;;;;;4998315;28;20241;-65
2022/04/01 11:01:59;;;;;;;2.20;2.10;;;3.50;99.90;;;;;;4997900;28;20278;-66
2022/04/01 11:04:31;;;;;;;2.10;2.00;;;3.50;99.90;;;;;;4994406;28;20234;-66
2022/04/01 11:07:01;;;;;;;1.90;1.90;;;3.50;99.90;;;;;;4994803;28;20277;-67
2022/04/01 11:09:39;;;;;;;2.15;2.05;;;3.60;99.90;;;;;;4995135;28;20203;-66
2022/04/01 11:12:27;;;;;;;2.40;2.30;;;3.60;99.90;;;;;;4994738;28;20197;-66
2022/04/01 11:15:15;;;;;;;2.33;2.22;;;3.50;99.90;;;;;;4994671;28;20289;-66
2022/04/01 11:18:10;;;;;;;1.90;1.90;;;3.50;99.90;;;;;;4994615;28;20258;-67
2022/04/01 11:20:39;;;;;;;1.65;1.65;;;3.50;99.90;;;;;;4994575;28;20261;-66
2022/04/01 11:23:14;;;;;;;2.20;2.10;;;3.50;99.90;;;;;;4994482;28;20203;-66
2022/04/01 11:26:04;;;;;;;1.77;1.77;;;3.50;99.90;;;;;;4994106;28;20273;-66
2022/04/01 11:28:39;;;;;;;2.20;2.10;;;3.50;99.90;;;;;;4994642;28;20273;-66
2022/04/01 11:31:15;;;;;;;2.13;2.03;;;3.60;99.90;;;;;;4994375;28;20367;-66
2022/04/01 11:34:00;;;;;;;2.83;2.72;;;3.60;99.90;;;;;;4994354;28;20191;-66
2022/04/01 11:36:28;;;;;;;2.20;2.10;;;3.70;99.90;;;;;;4994155;28;20629;-66
2022/04/01 11:38:56;;;;;;;2.67;2.47;;;3.80;99.90;;;;;;4994225;28;20199;-67
2022/04/01 11:41:24;;;;;;;3.10;2.90;;;3.90;99.90;;;;;;4993840;28;20203;-67
2022/04/01 11:43:51;;;;;;;2.63;2.53;;;3.90;99.90;;;;;;4993972;28;20202;-68
2022/04/01 11:46:18;;;;;;;2.42;2.33;;;4.00;99.90;;;;;;4993917;28;20586;-67
2022/04/01 11:48:46;;;;;;;2.85;2.75;;;4.10;99.90;;;;;;4994064;28;20290;-67
2022/04/01 11:51:15;;;;;;;2.90;2.80;;;4.20;99.90;;;;;;4993918;28;20237;-67
2022/04/01 11:53:45;;;;;;;2.28;2.20;;;4.20;99.90;;;;;;4993666;28;20585;-67
2022/04/01 11:56:15;;;;;;;3.42;3.22;;;4.30;99.90;;;;;;4993619;28;20579;-67
2022/04/01 11:58:55;;;;;;;3.08;2.88;;;4.20;99.90;;;;;;4993912;28;20206;-67
2022/04/01 12:01:25;;;;;;;3.17;2.92;;;4.30;99.90;;;;;;4993980;28;20195;-67
2022/04/01 12:04:03;;;;;;;3.28;3.10;;;4.30;99.90;;;;;;4993951;28;20319;-67
2022/04/01 12:09:15;;;;;;;3.60;3.40;;;4.40;99.90;;;;;;4993994;28;20187;-67
2022/04/01 12:11:46;;;;;;;4.15;3.88;;;4.40;99.90;;;;;;4993855;28;20213;-67
2022/04/01 12:14:13;;;;;;;4.30;4.00;;;4.30;99.90;;;;;;4993727;28;20234;-67
2022/04/01 12:16:42;;;;;;;4.30;4.00;;;4.30;99.90;;;;;;4993445;28;20218;-67
2022/04/01 12:19:20;;;;;;;4.78;4.38;;;4.30;99.90;;;;;;4993045;28;20203;-68
2022/04/01 12:21:49;;;;;;;5.20;4.70;;;4.20;99.90;;;;;;4994610;28;20191;-67
2022/04/01 12:24:17;;;;;;;4.47;4.18;;;4.20;99.90;;;;;;4993540;28;20259;-67
2022/04/01 12:26:48;;;;;;;4.72;4.43;;;4.30;99.90;;;;;;4993518;28;20238;-68
2022/04/01 12:29:21;;;;;;;5.65;4.85;;;4.20;99.90;;;;;;4993745;28;20260;-68
2022/04/01 12:31:54;;;;;;;4.43;4.13;;;4.10;99.90;;;;;;4993669;28;20301;-67
2022/04/01 12:34:21;;;;;;;4.85;4.40;;;4.10;99.90;;;;;;4993278;28;20205;-66
2022/04/01 12:36:54;;;;;;;4.32;3.97;;;4.20;99.90;;;;;;4993467;28;20273;-66
2022/04/01 12:39:21;;;;;;;4.78;4.47;;;4.30;99.90;;;;;;4993453;28;20195;-67
2022/04/01 12:41:54;;;;;;;4.90;4.60;;;4.30;99.90;;;;;;4993568;28;20203;-67
2022/04/01 12:44:24;;;;;;;5.05;4.65;;;4.20;99.90;;;;;;4993350;28;20226;-67
2022/04/01 12:46:51;;;;;;;4.32;4.03;;;4.10;99.90;;;;;;4993827;28;20231;-67
2022/04/01 12:49:20;;;;;;;5.03;4.63;;;4.10;99.90;;;;;;4993254;28;20663;-66
2022/04/01 12:51:53;;;;;;;4.72;4.35;;;4.20;99.90;;;;;;4993552;28;20229;-66
2022/04/01 12:54:33;;;;;;;4.38;4.07;;;4.20;99.90;;;;;;4993707;28;20201;-65
2022/04/01 12:57:03;;;;;;;4.55;4.25;;;4.30;99.90;;;;;;4993379;28;20248;-65
2022/04/01 12:59:36;;;;;;;4.35;4.05;;;4.20;99.90;;;;;;4995938;28;20191;-65
2022/04/01 13:02:06;;;;;;;4.35;4.05;;;4.30;99.90;;;;;;4997816;28;20294;-65
2022/04/01 13:04:40;;;;;;;4.28;3.97;;;4.20;99.90;;;;;;4998525;28;20206;-65
2022/04/01 13:07:15;;;;;;;4.40;4.10;;;4.20;99.90;;;;;;5000131;28;20671;-66
2022/04/01 13:09:48;;;;;;;4.30;3.90;;;4.10;99.90;;;;;;5001438;28;20187;-66
2022/04/01 13:12:17;;;;;;;4.32;4.05;;;4.00;99.90;;;;;;5003142;28;20207;-65
2022/04/01 13:14:45;;;;;;;3.70;3.38;;;3.90;99.90;;;;;;5002296;28;20731;-66
2022/04/01 13:17:15;;;;;;;4.15;3.85;;;3.80;99.90;;;;;;5001135;28;20601;-66
2022/04/01 13:19:45;;;;;;;3.30;3.10;;;3.80;99.90;;;;;;5002843;28;20203;-66
2022/04/01 13:22:13;;;;;;;3.75;3.55;;;3.90;99.90;;;;;;5002363;28;20206;-65
2022/04/01 13:24:43;;;;;;;3.22;3.03;;;3.80;99.90;;;;;;5002018;28;20249;-65
2022/04/01 13:27:13;;;;;;;3.25;3.05;;;3.70;99.90;;;;;;5000989;28;20321;-66
2022/04/01 13:29:43;;;;;;;3.42;3.22;;;3.70;99.90;;;;;;5000716;28;20210;-66
2022/04/01 13:32:12;;;;;;;3.35;3.15;;;3.70;99.90;;;;;;5001947;28;20193;-66
2022/04/01 13:34:40;;;;;;;3.25;2.95;;;3.70;99.90;;;;;;4999963;28;20281;-66
2022/04/01 13:37:10;;;;;;;2.40;2.30;;;3.70;99.90;;;;;;4999582;28;20223;-66
2022/04/01 13:39:38;;;;;;;2.42;2.33;;;3.70;99.90;;;;;;5000873;28;20261;-66
2022/04/01 13:42:06;;;;;;;2.60;2.50;;;3.70;99.90;;;;;;4999706;28;20285;-65
2022/04/01 13:44:35;;;;;;;2.42;2.33;;;3.70;99.90;;;;;;5001078;28;20725;-64
2022/04/01 13:47:05;;;;;;;2.20;2.13;;;3.70;99.90;;;;;;5000335;28;20702;-64
2022/04/01 13:49:33;;;;;;;1.80;1.80;;;3.80;99.90;;;;;;4999077;28;20206;-64
2022/04/01 13:52:01;;;;;;;1.65;1.65;;;3.80;99.90;;;;;;4997348;28;20281;-65
2022/04/01 13:54:30;;;;;;;1.67;1.67;;;3.80;99.90;;;;;;4996809;28;20210;-65
2022/04/01 13:56:58;;;;;;;1.42;1.42;;;3.80;99.90;;;;;;4995962;28;20677;-65
2022/04/01 13:59:26;;;;;;;2.17;1.83;;;3.70;99.90;;;;;;4995900;28;20735;-65
2022/04/01 14:01:53;;;;;;;1.60;1.60;;;3.70;99.90;;;;;;4996109;28;20225;-66
2022/04/01 14:04:21;;;;;;;1.60;1.60;;;3.80;99.90;;;;;;4996203;28;20249;-65
2022/04/01 14:06:50;;;;;;;1.50;1.50;;;3.80;99.90;;;;;;4996059;28;20234;-65
2022/04/01 14:09:18;;;;;;;1.55;1.55;;;3.80;99.90;;;;;;4996703;28;20297;-65
2022/04/01 14:11:45;;;;;;;1.92;1.88;;;3.80;99.90;;;;;;4999580;28;20202;-65
2022/04/01 14:14:12;;;;;;;1.73;1.73;;;3.80;99.90;;;;;;5001404;28;20207;-65
2022/04/01 14:16:40;;;;;;;1.50;1.50;;;3.80;99.90;;;;;;5005008;28;20254;-65
2022/04/01 14:19:08;;;;;;;1.80;1.75;;;3.70;99.90;;;;;;5005236;28;20270;-65
2022/04/01 14:21:37;;;;;;;1.55;1.55;;;3.70;99.90;;;;;;5006614;28;20278;-65
2022/04/01 14:24:05;;;;;;;1.20;1.20;;;3.70;99.90;;;;;;5001419;28;20290;-65
2022/04/01 14:26:33;;;;;;;1.58;1.58;;;3.60;99.90;;;;;;5004086;28;20277;-65
2022/04/01 14:30:16;;;;;;;1.45;1.45;;;3.40;99.90;;;;;;5007152;28;20267;-65
2022/04/01 14:31:58;;;;;;;1.67;1.67;;;3.20;99.90;;;;;;5004899;28;20198;-65
2022/04/01 14:34:26;;;;;;;2.00;1.90;;;3.10;99.90;;;;;;4996296;28;20191;-66
2022/04/01 14:36:56;;;;;;;2.28;2.17;;;3.10;99.90;;;;;;4995061;28;20749;-65
2022/04/01 14:39:23;;;;;;;2.50;2.40;;;3.00;99.90;;;;;;4995313;28;20206;-65
2022/04/01 14:41:50;;;;;;;2.60;2.50;;;3.00;99.90;;;;;;4995663;28;20231;-65
2022/04/01 14:44:17;;;;;;;2.58;2.47;;;2.90;99.90;;;;;;4995743;28;20230;-65
2022/04/01 14:46:44;;;;;;;2.75;2.65;;;2.90;99.90;;;;;;4995392;28;20231;-65
2022/04/01 14:49:11;;;;;;;2.53;2.45;;;2.80;99.90;;;;;;4995340;28;20224;-65
2022/04/01 14:51:38;;;;;;;2.70;2.60;;;2.70;99.90;;;;;;4995190;28;20290;-65
2022/04/01 14:54:07;;;;;;;3.03;2.83;;;2.70;99.90;;;;;;4994630;28;20213;-64
2022/04/01 14:56:34;;;;;;;2.90;2.80;;;2.70;99.90;;;;;;4994967;28;20244;-65
2022/04/01 14:59:02;;;;;;;2.40;2.30;;;2.70;99.90;;;;;;4994976;28;20210;-64
2022/04/01 15:01:29;;;;;;;2.83;2.72;;;2.70;99.90;;;;;;4994818;28;20206;-64
2022/04/01 15:03:56;;;;;;;2.38;2.28;;;2.70;99.90;;;;;;4994905;28;20202;-65
2022/04/01 15:06:24;;;;;;;2.80;2.70;;;2.60;99.90;;;;;;4994694;28;20709;-66
2022/04/01 15:08:51;;;;;;;2.60;2.50;;;2.70;99.90;;;;;;4994755;28;20286;-66
2022/04/01 15:11:19;;;;;;;2.80;2.65;;;2.60;99.90;;;;;;4994797;28;20203;-66
2022/04/01 15:13:46;;;;;;;2.58;2.47;;;2.70;99.90;;;;;;4994763;28;20237;-66
2022/04/01 15:16:13;;;;;;;2.90;2.80;;;2.60;99.90;;;;;;4995396;28;20282;-66
2022/04/01 15:18:40;;;;;;;2.95;2.85;;;2.60;99.90;;;;;;4995212;28;20611;-66
2022/04/01 15:21:07;;;;;;;2.65;2.55;;;2.60;99.90;;;;;;4993954;28;20293;-68
2022/04/01 15:23:34;;;;;;;3.17;2.97;;;2.60;99.90;;;;;;4994540;28;20289;-67
2022/04/01 15:26:01;;;;;;;3.00;2.80;;;2.50;99.90;;;;;;4994648;28;20329;-67
2022/04/01 15:28:29;;;;;;;3.15;2.97;;;2.50;99.90;;;;;;4994748;28;20187;-66
2022/04/01 15:30:56;;;;;;;3.28;3.10;;;2.40;99.90;;;;;;4994175;28;20614;-67
2022/04/01 15:33:23;;;;;;;3.90;3.70;;;2.30;99.90;;;;;;4994176;28;20214;-67
2022/04/01 15:35:53;;;;;;;2.97;2.78;;;2.30;99.90;;;;;;4994464;28;20235;-67
2022/04/01 15:38:29;;;;;;;3.08;2.97;;;2.20;99.90;;;;;;4994143;28;20191;-67
2022/04/01 15:40:59;;;;;;;2.85;2.75;;;2.20;99.90;;;;;;4994508;28;20285;-68
2022/04/01 15:43:28;;;;;;;3.30;3.10;;;2.20;99.90;;;;;;4994756;28;20206;-67
2022/04/01 15:45:59;;;;;;;2.97;2.80;;;2.20;99.90;;;;;;4993765;28;20769;-66
2022/04/01 15:48:26;;;;;;;3.30;3.10;;;2.20;99.90;;;;;;4994465;28;20191;-68
2022/04/01 15:50:53;;;;;;;2.40;2.33;;;2.30;99.90;;;;;;4994229;28;20641;-67
2022/04/01 15:53:21;;;;;;;2.60;2.50;;;2.30;99.90;;;;;;4993745;28;20251;-68
2022/04/01 15:55:49;;;;;;;3.13;2.83;;;2.20;99.90;;;;;;4994380;28;20202;-68
2022/04/01 15:58:16;;;;;;;2.78;2.67;;;2.10;99.90;;;;;;4994082;28;20225;-67
2022/04/01 16:00:45;;;;;;;2.95;2.80;;;2.20;99.90;;;;;;4993946;28;20294;-65
2022/04/01 16:03:14;;;;;;;2.80;2.60;;;2.20;99.90;;;;;;4993742;28;20211;-64
2022/04/01 16:05:44;;;;;;;3.15;2.95;;;2.20;99.90;;;;;;4993743;28;20249;-64
2022/04/01 16:08:13;;;;;;;2.80;2.70;;;2.20;99.90;;;;;;4993551;28;20231;-65
2022/04/01 16:10:42;;;;;;;2.25;2.15;;;2.30;99.90;;;;;;4993531;28;20689;-65
2022/04/01 16:13:10;;;;;;;2.60;2.50;;;2.30;99.90;;;;;;4993670;28;20301;-65
2022/04/01 16:15:39;;;;;;;2.53;2.42;;;2.20;99.90;;;;;;4993817;28;20297;-65
2022/04/01 16:18:07;;;;;;;2.63;2.53;;;2.20;99.90;;;;;;4994830;28;20229;-65
2022/04/01 16:20:40;;;;;;;2.78;2.67;;;2.10;99.90;;;;;;4993785;28;20230;-65
2022/04/01 16:23:08;;;;;;;2.65;2.55;;;2.10;99.90;;;;;;4993728;28;20187;-65
2022/04/01 16:25:35;;;;;;;2.70;2.60;;;2.10;99.90;;;;;;4993346;28;20226;-65
2022/04/01 16:28:02;;;;;;;2.65;2.53;;;2.10;99.90;;;;;;4993782;28;20720;-65
2022/04/01 16:30:31;;;;;;;2.60;2.17;;;2.00;99.90;;;;;;4993508;28;20277;-64
2022/04/01 16:32:58;;;;;;;2.42;2.38;;;2.00;99.90;;;;;;4993505;28;20238;-64
2022/04/01 16:35:25;;;;;;;2.63;2.53;;;1.90;99.90;;;;;;4997268;28;20202;-64
2022/04/01 16:37:53;;;;;;;3.67;3.38;;;1.90;99.90;;;;;;4997342;28;20229;-64
2022/04/01 16:40:20;;;;;;;2.88;2.67;;;1.80;99.90;;;;;;4997171;28;20206;-66
2022/04/01 16:42:47;;;;;;;2.95;2.85;;;1.70;99.90;;;;;;4997376;28;20203;-66
2022/04/01 16:45:14;;;;;;;2.72;2.63;;;1.70;99.90;;;;;;4997223;28;20209;-67
2022/04/01 16:47:44;;;;;;;2.67;2.58;;;1.60;99.90;;;;;;4996857;28;20686;-66
2022/04/01 16:50:11;;;;;;;2.63;2.53;;;1.50;99.90;;;;;;4997352;28;20575;-67
2022/04/01 16:52:38;;;;;;;2.67;2.58;;;1.40;99.90;;;;;;4997147;28;20213;-66
2022/04/01 16:55:07;;;;;;;4.13;3.80;;;1.40;99.90;;;;;;4997150;28;20213;-69
2022/04/01 16:57:34;;;;;;;3.53;3.22;;;1.30;99.90;;;;;;4997078;28;20223;-66
2022/04/01 17:00:01;;;;;;;3.95;3.75;;;1.30;99.90;;;;;;4997140;28;20298;-66
2022/04/01 17:02:28;;;;;;;4.13;3.88;;;1.20;99.90;;;;;;4997949;28;20634;-67
2022/04/01 17:04:56;;;;;;;3.55;3.45;;;1.10;99.90;;;;;;4996985;28;20234;-66
2022/04/01 17:12:54;;;;;;;3.97;3.78;;;1.00;99.90;;;;;;5000875;28;20190;-66
2022/04/01 17:15:21;;;;;;;4.22;3.92;;;1.00;99.90;;;;;;4997197;28;20221;-70
2022/04/01 17:17:49;;;;;;;3.17;3.08;;;1.00;99.90;;;;;;5001222;28;20708;-66
2022/04/01 17:20:20;;;;;;;3.13;3.00;;;1.00;99.90;;;;;;5001861;28;20254;-66
2022/04/01 17:22:48;;;;;;;3.88;3.67;;;1.00;99.90;;;;;;5001479;28;20241;-66
2022/04/01 17:25:18;;;;;;;4.20;3.90;;;0.90;99.90;;;;;;5001656;28;20210;-66
2022/04/01 17:27:47;;;;;;;4.40;4.10;;;0.90;99.90;;;;;;5002772;28;20229;-66
2022/04/01 17:30:16;;;;;;;6.25;4.75;;;0.80;99.90;;;;;;5003096;28;20206;-66
2022/04/01 17:32:44;;;;;;;4.90;4.50;;;0.70;99.90;;;;;;5001088;28;20202;-66
2022/04/01 17:35:13;;;;;;;5.55;4.25;;;0.70;99.90;;;;;;5001596;28;20206;-66
2022/04/01 17:37:43;;;;;;;4.03;3.72;;;0.70;99.90;;;;;;4999770;28;20721;-66
2022/04/01 17:40:11;;;;;;;3.67;3.47;;;0.70;99.90;;;;;;4999120;28;20627;-66
2022/04/01 17:42:39;;;;;;;3.15;3.05;;;0.60;99.90;;;;;;4998183;28;20207;-65
2022/04/01 17:45:07;;;;;;;3.53;3.33;;;0.60;99.90;;;;;;4998536;28;20285;-64
2022/04/01 17:47:35;;;;;;;3.78;3.58;;;0.50;99.90;;;;;;4996304;28;20720;-64
2022/04/01 17:50:02;;;;;;;3.47;3.28;;;0.50;99.90;;;;;;4996799;28;20216;-64
2022/04/01 17:52:29;;;;;;;3.60;3.40;;;0.50;99.90;;;;;;4996482;28;20234;-65
2022/04/01 17:54:59;;;;;;;3.47;3.28;;;0.50;99.90;;;;;;4996777;28;20237;-65
2022/04/01 17:57:27;;;;;;;3.33;3.13;;;0.40;99.90;;;;;;4996672;28;20627;-65
2022/04/01 17:59:57;;;;;;;3.80;3.58;;;0.40;99.90;;;;;;4997395;28;20209;-65
2022/04/01 18:02:25;;;;;;;3.95;3.75;;;0.40;99.90;;;;;;4997355;28;20223;-65
2022/04/01 18:04:56;;;;;;;3.17;3.08;;;0.40;99.90;;;;;;4996787;28;20211;-65
2022/04/01 18:07:24;;;;;;;3.50;2.90;;;0.40;99.90;;;;;;4996116;28;20594;-65
2022/04/01 18:09:53;;;;;;;3.63;3.42;;;0.40;99.90;;;;;;4996356;28;20232;-65
2022/04/01 18:12:22;;;;;;;3.17;3.08;;;0.30;99.90;;;;;;4995923;28;20203;-65
2022/04/01 18:14:50;;;;;;;2.88;2.78;;;0.30;99.90;;;;;;4995773;28;20199;-65
2022/04/01 18:17:20;;;;;;;2.75;2.65;;;0.30;99.90;;;;;;4995657;28;20392;-65
2022/04/01 18:19:48;;;;;;;3.03;2.83;;;0.20;99.90;;;;;;4995802;28;20210;-65
2022/04/01 18:22:15;;;;;;;2.95;2.85;;;0.20;99.90;;;;;;4995508;28;20213;-65
2022/04/01 18:27:40;;;;;;;3.20;3.00;;;0.10;99.90;;;;;;4995880;28;20721;-65
2022/04/01 18:30:10;;;;;;;3.42;3.22;;;0.10;99.90;;;;;;4995878;28;20190;-65
2022/04/01 18:32:51;;;;;;;3.00;2.90;;;0.10;99.90;;;;;;4995862;28;20203;-65
2022/04/01 18:35:25;;;;;;;3.40;3.05;;;0.10;99.90;;;;;;4995631;28;20241;-65
2022/04/01 18:37:54;;;;;;;3.10;2.95;;;0.10;99.90;;;;;;4995478;28;20227;-65
2022/04/01 18:40:23;;;;;;;2.83;2.72;;;0.00;99.90;;;;;;4995418;28;20269;-65
2022/04/01 18:42:51;;;;;;;2.97;2.78;;;0.00;99.90;;;;;;4995186;28;20286;-65
2022/04/01 18:45:18;;;;;;;3.38;3.17;;;0.00;99.90;;;;;;4995241;28;20206;-65
2022/04/01 18:47:46;;;;;;;3.28;3.15;;;0.00;99.90;;;;;;4995121;28;20233;-65
2022/04/01 18:50:15;;;;;;;3.30;3.20;;;0.00;99.90;;;;;;4995596;28;20253;-64
2022/04/01 18:52:43;;;;;;;3.10;3.00;;;0.00;99.90;;;;;;4995003;28;20210;-65
2022/04/01 18:55:12;;;;;;;2.97;2.88;;;0.00;99.90;;;;;;4994660;28;20205;-65
2022/04/01 18:57:41;;;;;;;3.08;2.97;;;0.00;99.90;;;;;;4994388;28;20225;-65
2022/04/01 19:00:09;;;;;;;2.72;2.63;;;0.00;99.90;;;;;;4994804;28;20736;-65
2022/04/01 19:02:45;;;;;;;3.58;3.45;;;0.00;99.90;;;;;;4994942;28;20202;-65
2022/04/01 19:05:19;;;;;;;3.00;2.90;;;0.00;99.90;;;;;;4994868;28;20646;-65
2022/04/01 19:07:57;;;;;;;3.92;3.72;;;0.00;99.90;;;;;;4994930;28;20237;-65
2022/04/01 19:10:29;;;;;;;3.40;3.30;;;0.00;99.90;;;;;;4995171;28;20193;-65
2022/04/01 19:12:58;;;;;;;3.78;3.58;;;-0.10;99.90;;;;;;4995453;28;20191;-65
2022/04/01 19:15:28;;;;;;;4.18;3.97;;;-0.10;99.90;;;;;;4994705;28;20289;-66
2022/04/01 19:17:58;;;;;;;3.78;3.58;;;-0.10;99.90;;;;;;4994965;28;20229;-66
2022/04/01 19:20:30;;;;;;;3.22;3.13;;;-0.10;99.90;;;;;;4994426;28;20193;-65
2022/04/01 19:22:58;;;;;;;3.95;3.75;;;-0.10;99.90;;;;;;4994832;28;20194;-65
2022/04/01 19:25:25;;;;;;;4.90;4.65;;;-0.10;99.90;;;;;;4994777;28;20297;-66
2022/04/01 19:27:52;;;;;;;4.53;4.22;;;-0.10;99.90;;;;;;4994379;28;20685;-65
2022/04/01 19:30:19;;;;;;;4.13;3.92;;;-0.20;99.90;;;;;;4994747;28;20302;-66
2022/04/01 19:32:47;;;;;;;4.50;4.18;;;-0.20;99.90;;;;;;4994415;28;20198;-66
2022/04/01 19:35:15;;;;;;;4.13;3.92;;;-0.20;99.90;;;;;;4994311;28;20207;-66
2022/04/01 19:37:44;;;;;;;4.68;4.38;;;-0.20;99.90;;;;;;4994116;28;20720;-66
2022/04/01 19:40:12;;;;;;;4.63;4.25;;;-0.30;99.90;;;;;;4994243;28;20206;-66
2022/04/01 19:42:39;;;;;;;4.85;4.53;;;-0.30;99.90;;;;;;4993844;28;20205;-65
2022/04/01 19:45:07;;;;;;;4.53;4.22;;;-0.30;99.90;;;;;;4993794;28;20298;-65
2022/04/01 19:47:35;;;;;;;4.13;3.92;;;-0.40;99.90;;;;;;4993314;28;20309;-66
2022/04/01 19:50:02;;;;;;;4.15;3.92;;;-0.40;99.90;;;;;;4993363;28;20198;-66
2022/04/01 19:52:30;;;;;;;3.67;3.47;;;-0.40;99.90;;;;;;4993934;28;20218;-65
2022/04/01 19:54:58;;;;;;;3.70;3.50;;;-0.40;99.90;;;;;;4993828;28;20207;-65
2022/04/01 19:57:25;;;;;;;4.00;3.70;;;-0.50;99.90;;;;;;4993805;28;20218;-66
2022/04/01 19:59:52;;;;;;;3.95;3.65;;;-0.30;99.90;;;;;;4994462;28;20210;-66
2022/04/01 20:02:20;;;;;;;4.70;4.40;;;-0.30;99.90;;;;;;4994473;28;20209;-66